Time;durP1;ratioP1;P1;durP2;ratioP2;P2;SDS_P1;SDS_P2;PMS_P1;PMS_P2;Temp;Humidity;BMP_temperature;BMP_pressure;BME280_temperature;BME280_humidity;BME280_pressure;Samples;Min_cycle;Max_cycle;Signal;HPM_P1;HPM_P2
2023/07/04 00:01:00;;;;;;;3.08;2.40;;;;;;;;;;5033871;28;20206;-79
2023/07/04 00:03:27;;;;;;;2.33;2.13;;;;;;;;;;5033427;28;20242;-80
2023/07/04 00:05:55;;;;;;;2.75;2.20;;;;;;;;;;5033787;28;20206;-79
2023/07/04 00:08:24;;;;;;;2.30;2.10;;;;;;;;;;5032912;28;20242;-79
2023/07/04 00:10:51;;;;;;;3.38;2.35;;;;;;;;;;5034069;28;20217;-79
2023/07/04 00:13:19;;;;;;;4.22;2.53;;;;;;;;;;5033284;28;20230;-79
2023/07/04 00:15:46;;;;;;;2.72;2.33;;;;;;;;;;5034188;28;20206;-80
2023/07/04 00:18:14;;;;;;;4.93;2.50;;;;;;;;;;5033104;28;20238;-80
2023/07/04 00:20:42;;;;;;;2.72;2.30;;;;;;;;;;5033498;28;20685;-80
2023/07/04 00:23:09;;;;;;;4.32;2.20;;;;;;;;;;5032899;28;20234;-80
2023/07/04 00:25:38;;;;;;;3.92;2.30;;;;;;;;;;5033427;28;20222;-79
2023/07/04 00:28:05;;;;;;;3.50;2.45;;;;;;;;;;5032630;28;20677;-80
2023/07/04 00:30:32;;;;;;;4.70;2.67;;;;;;;;;;5033501;28;20290;-80
2023/07/04 00:32:59;;;;;;;3.97;2.15;;;;;;;;;;5032833;28;20551;-79
2023/07/04 00:35:27;;;;;;;3.42;1.98;;;;;;;;;;5033174;28;20214;-79
2023/07/04 00:37:55;;;;;;;3.35;2.15;;;;;;;;;;5032594;28;20207;-80
2023/07/04 00:40:24;;;;;;;2.22;2.03;;;;;;;;;;5033187;28;20301;-79
2023/07/04 00:42:56;;;;;;;3.38;2.80;;;;;;;;;;5032597;28;20245;-81
2023/07/04 00:45:27;;;;;;;2.42;2.22;;;;;;;;;;5031744;28;20221;-81
2023/07/04 00:47:57;;;;;;;2.45;2.25;;;;;;;;;;5032496;28;20221;-80
2023/07/04 00:50:26;;;;;;;2.75;2.47;;;;;;;;;;5032899;28;20207;-80
2023/07/04 00:52:55;;;;;;;3.38;2.22;;;;;;;;;;5032763;28;20237;-81
2023/07/04 00:55:22;;;;;;;2.45;2.25;;;;;;;;;;5032879;28;20214;-81
2023/07/04 00:57:49;;;;;;;5.07;2.42;;;;;;;;;;5029951;28;20211;-81
2023/07/04 01:00:20;;;;;;;2.58;2.38;;;;;;;;;;5032173;28;20318;-80
2023/07/04 01:02:49;;;;;;;4.25;2.08;;;;;;;;;;5032132;28;20247;-81
2023/07/04 01:05:19;;;;;;;4.17;2.43;;;;;;;;;;5029226;28;20238;-80
2023/07/04 01:07:50;;;;;;;2.50;2.22;;;;;;;;;;5031443;28;20206;-81
2023/07/04 01:10:19;;;;;;;2.45;2.25;;;;;;;;;;5032453;28;20230;-80
2023/07/04 01:12:46;;;;;;;2.87;2.33;;;;;;;;;;5032105;28;20195;-81
2023/07/04 01:15:13;;;;;;;2.45;2.10;;;;;;;;;;5032579;28;20210;-81
2023/07/04 01:17:42;;;;;;;4.90;2.70;;;;;;;;;;5032311;28;20211;-79
2023/07/04 01:20:11;;;;;;;2.95;2.38;;;;;;;;;;5031894;28;20231;-80
2023/07/04 01:22:42;;;;;;;3.30;2.20;;;;;;;;;;5032329;28;20226;-80
2023/07/04 01:25:13;;;;;;;2.63;2.20;;;;;;;;;;5031849;28;20241;-80
2023/07/04 01:27:42;;;;;;;3.10;2.60;;;;;;;;;;5032431;28;20207;-80
2023/07/04 01:30:10;;;;;;;3.17;2.17;;;;;;;;;;5011972;28;20644;-80
2023/07/04 01:32:37;;;;;;;3.27;2.70;;;;;;;;;;5012394;28;20218;-80
2023/07/04 01:35:06;;;;;;;3.23;2.20;;;;;;;;;;5030928;28;20751;-81
2023/07/04 01:37:33;;;;;;;3.17;2.70;;;;;;;;;;5031893;28;20681;-80
2023/07/04 01:40:01;;;;;;;5.90;2.73;;;;;;;;;;5031561;28;20736;-81
2023/07/04 01:42:31;;;;;;;3.33;2.60;;;;;;;;;;5031897;28;20235;-80
2023/07/04 01:45:01;;;;;;;5.27;2.60;;;;;;;;;;5031504;28;20254;-81
2023/07/04 01:47:28;;;;;;;4.45;2.50;;;;;;;;;;5031854;28;20260;-80
2023/07/04 01:49:55;;;;;;;4.30;2.57;;;;;;;;;;5031424;28;20265;-81
2023/07/04 01:52:23;;;;;;;4.37;2.53;;;;;;;;;;5031802;28;20235;-81
2023/07/04 01:54:50;;;;;;;3.83;2.80;;;;;;;;;;5031422;28;20230;-81
2023/07/04 01:57:17;;;;;;;3.53;2.30;;;;;;;;;;5031673;28;20214;-81
2023/07/04 01:59:44;;;;;;;2.77;2.47;;;;;;;;;;5031286;28;20238;-81
2023/07/04 02:02:13;;;;;;;4.10;2.40;;;;;;;;;;5031614;28;20227;-80
2023/07/04 02:04:40;;;;;;;3.07;2.40;;;;;;;;;;5031185;28;20231;-78
2023/07/04 02:07:07;;;;;;;3.40;2.50;;;;;;;;;;5031533;28;20293;-80
2023/07/04 02:09:34;;;;;;;3.67;2.57;;;;;;;;;;5030971;28;20242;-81
2023/07/04 02:12:01;;;;;;;2.80;2.60;;;;;;;;;;5031637;28;20213;-80
2023/07/04 02:14:28;;;;;;;4.47;2.53;;;;;;;;;;5030929;28;20249;-81
2023/07/04 02:16:56;;;;;;;2.93;2.20;;;;;;;;;;5031919;28;20202;-81
2023/07/04 02:19:24;;;;;;;4.43;2.67;;;;;;;;;;5030801;28;20238;-81
2023/07/04 02:21:51;;;;;;;3.83;2.50;;;;;;;;;;5031404;28;20211;-81
2023/07/04 02:24:18;;;;;;;4.73;2.60;;;;;;;;;;5031031;28;20242;-81
2023/07/04 02:26:45;;;;;;;3.10;2.80;;;;;;;;;;5031930;28;20237;-81
2023/07/04 02:29:12;;;;;;;2.90;2.60;;;;;;;;;;5030721;28;20261;-81
2023/07/04 02:31:39;;;;;;;6.27;2.43;;;;;;;;;;5031600;28;20202;-80
2023/07/04 02:34:06;;;;;;;4.27;2.47;;;;;;;;;;5030974;28;20646;-81
2023/07/04 02:36:35;;;;;;;2.93;2.43;;;;;;;;;;5031329;28;20217;-81
2023/07/04 02:39:02;;;;;;;3.57;2.60;;;;;;;;;;5030510;28;20241;-81
2023/07/04 02:41:29;;;;;;;2.70;2.50;;;;;;;;;;5031359;28;20792;-81
2023/07/04 02:43:57;;;;;;;4.50;2.73;;;;;;;;;;5030761;28;20663;-81
2023/07/04 02:46:24;;;;;;;3.73;2.73;;;;;;;;;;5031156;28;20218;-80
2023/07/04 02:48:51;;;;;;;5.33;2.63;;;;;;;;;;5030535;28;20246;-80
2023/07/04 02:51:18;;;;;;;4.10;2.87;;;;;;;;;;5031130;28;20573;-81
2023/07/04 02:53:47;;;;;;;4.03;2.77;;;;;;;;;;5030722;28;20234;-81
2023/07/04 02:56:14;;;;;;;2.60;2.33;;;;;;;;;;5031372;28;20203;-81
2023/07/04 02:58:41;;;;;;;2.40;2.20;;;;;;;;;;5030771;28;20246;-81
2023/07/04 03:01:08;;;;;;;5.23;2.73;;;;;;;;;;5030975;28;20257;-81
2023/07/04 03:03:35;;;;;;;2.97;2.43;;;;;;;;;;5030730;28;20243;-81
2023/07/04 03:06:02;;;;;;;3.73;2.47;;;;;;;;;;5031152;28;20203;-81
2023/07/04 03:08:29;;;;;;;5.33;3.10;;;;;;;;;;5032804;28;20242;-81
2023/07/04 03:10:58;;;;;;;3.57;2.77;;;;;;;;;;5034988;28;20218;-81
2023/07/04 03:13:25;;;;;;;5.67;3.47;;;;;;;;;;5034415;28;20253;-80
2023/07/04 03:15:52;;;;;;;4.87;2.80;;;;;;;;;;5034509;28;20206;-81
2023/07/04 03:18:19;;;;;;;5.40;2.97;;;;;;;;;;5033942;28;20242;-80
2023/07/04 03:20:46;;;;;;;3.57;2.67;;;;;;;;;;5035143;28;20213;-81
2023/07/04 03:23:13;;;;;;;3.03;2.67;;;;;;;;;;5034236;28;20245;-81
2023/07/04 03:25:40;;;;;;;3.97;2.90;;;;;;;;;;5034748;28;20229;-81
2023/07/04 03:28:08;;;;;;;3.33;3.03;;;;;;;;;;5033882;28;20239;-81
2023/07/04 03:30:35;;;;;;;5.10;3.20;;;;;;;;;;5034675;28;20571;-81
2023/07/04 03:33:02;;;;;;;4.20;2.87;;;;;;;;;;5034129;28;20697;-81
2023/07/04 03:35:29;;;;;;;4.20;2.53;;;;;;;;;;5034425;28;20210;-81
2023/07/04 03:37:57;;;;;;;2.77;2.57;;;;;;;;;;5033920;28;20206;-82
2023/07/04 03:40:24;;;;;;;4.23;2.80;;;;;;;;;;5037224;28;20206;-87
2023/07/04 03:42:51;;;;;;;3.37;3.07;;;;;;;;;;5036815;28;20222;-88
2023/07/04 03:45:19;;;;;;;3.93;3.00;;;;;;;;;;5036941;28;20612;-88
2023/07/04 03:47:47;;;;;;;5.30;3.40;;;;;;;;;;5036709;28;20580;-87
2023/07/04 03:50:14;;;;;;;4.17;2.93;;;;;;;;;;5036958;28;20231;-88
2023/07/04 03:52:41;;;;;;;3.83;2.70;;;;;;;;;;5036967;28;20210;-88
2023/07/04 03:55:09;;;;;;;5.27;2.83;;;;;;;;;;5036130;28;20234;-86
2023/07/04 03:57:36;;;;;;;4.13;3.10;;;;;;;;;;5036143;28;20700;-86
2023/07/04 04:00:05;;;;;;;3.83;3.03;;;;;;;;;;5036222;28;20234;-87
2023/07/04 04:02:34;;;;;;;5.30;2.80;;;;;;;;;;5036792;28;20256;-86
2023/07/04 04:05:01;;;;;;;5.57;3.33;;;;;;;;;;5035869;28;20246;-86
2023/07/04 04:07:28;;;;;;;7.67;3.40;;;;;;;;;;5035297;28;20221;-87
2023/07/04 04:09:55;;;;;;;6.20;2.97;;;;;;;;;;5034462;28;20713;-87
2023/07/04 04:12:22;;;;;;;6.67;3.67;;;;;;;;;;5035777;28;20217;-87
2023/07/04 04:14:50;;;;;;;4.63;2.83;;;;;;;;;;5036375;28;20246;-86
2023/07/04 04:17:18;;;;;;;5.67;3.00;;;;;;;;;;5035707;28;20214;-87
2023/07/04 04:19:47;;;;;;;4.80;2.80;;;;;;;;;;5035023;28;20234;-86
2023/07/04 04:22:14;;;;;;;5.53;3.20;;;;;;;;;;5035602;28;20203;-86
2023/07/04 04:24:41;;;;;;;6.00;3.67;;;;;;;;;;5035607;28;20243;-87
2023/07/04 04:27:08;;;;;;;3.27;2.97;;;;;;;;;;5035665;28;20218;-86
2023/07/04 04:29:36;;;;;;;3.80;2.80;;;;;;;;;;5035297;28;20245;-87
2023/07/04 04:32:03;;;;;;;4.27;3.60;;;;;;;;;;5035776;28;20229;-87
2023/07/04 04:34:30;;;;;;;5.20;3.17;;;;;;;;;;5035220;28;20234;-87
2023/07/04 04:36:58;;;;;;;5.57;3.80;;;;;;;;;;5035826;28;20206;-87
2023/07/04 04:39:28;;;;;;;5.63;3.40;;;;;;;;;;5034680;28;20238;-86
2023/07/04 04:41:55;;;;;;;5.27;3.67;;;;;;;;;;5035593;28;20707;-86
2023/07/04 04:44:22;;;;;;;4.97;3.57;;;;;;;;;;5035078;28;20238;-87
2023/07/04 04:46:49;;;;;;;6.17;4.13;;;;;;;;;;5035514;28;20684;-86
2023/07/04 04:49:18;;;;;;;6.37;3.30;;;;;;;;;;5034810;28;20230;-86
2023/07/04 04:51:45;;;;;;;5.40;3.53;;;;;;;;;;5035880;28;20577;-86
2023/07/04 04:54:14;;;;;;;7.70;3.70;;;;;;;;;;5034626;28;20288;-87
2023/07/04 04:56:43;;;;;;;8.20;4.10;;;;;;;;;;5035511;28;20253;-87
2023/07/04 04:59:10;;;;;;;6.03;3.37;;;;;;;;;;5034798;28;20269;-86
2023/07/04 05:01:38;;;;;;;7.40;3.70;;;;;;;;;;5034618;28;20229;-86
2023/07/04 05:04:05;;;;;;;5.83;3.30;;;;;;;;;;5034437;28;20624;-86
2023/07/04 05:06:32;;;;;;;4.77;3.43;;;;;;;;;;5035317;28;20215;-87
2023/07/04 05:08:59;;;;;;;5.87;3.37;;;;;;;;;;5034234;28;20243;-87
2023/07/04 05:11:28;;;;;;;4.80;3.20;;;;;;;;;;5033806;28;20210;-86
2023/07/04 05:13:55;;;;;;;5.50;3.20;;;;;;;;;;5033497;28;20238;-86
2023/07/04 05:16:22;;;;;;;6.37;3.37;;;;;;;;;;5034692;28;20214;-86
2023/07/04 05:18:51;;;;;;;7.03;3.53;;;;;;;;;;5033734;28;20246;-86
2023/07/04 05:21:19;;;;;;;6.67;3.40;;;;;;;;;;5034660;28;20217;-86
2023/07/04 05:23:51;;;;;;;5.40;3.23;;;;;;;;;;5034526;28;20239;-86
2023/07/04 05:26:19;;;;;;;6.07;3.40;;;;;;;;;;5034673;28;20203;-86
2023/07/04 05:28:48;;;;;;;8.90;3.87;;;;;;;;;;5033412;28;20239;-87
2023/07/04 05:31:16;;;;;;;6.63;3.57;;;;;;;;;;5033859;28;20213;-86
2023/07/04 05:33:43;;;;;;;7.50;3.63;;;;;;;;;;5032650;28;20227;-84
2023/07/04 05:36:13;;;;;;;6.97;3.37;;;;;;;;;;5034419;28;20206;-85
2023/07/04 05:38:40;;;;;;;7.63;3.20;;;;;;;;;;5033513;28;20242;-85
2023/07/04 05:41:09;;;;;;;6.73;3.10;;;;;;;;;;5034076;28;20218;-85
2023/07/04 05:43:36;;;;;;;8.43;3.57;;;;;;;;;;5032533;28;20288;-86
2023/07/04 05:46:05;;;;;;;6.00;3.23;;;;;;;;;;5033437;28;20264;-86
2023/07/04 05:48:33;;;;;;;5.77;3.00;;;;;;;;;;5033431;28;20250;-84
2023/07/04 05:51:01;;;;;;;6.13;3.20;;;;;;;;;;5033210;28;20669;-85
2023/07/04 05:53:29;;;;;;;6.60;3.30;;;;;;;;;;5032956;28;20238;-86
2023/07/04 05:56:05;;;;;;;5.17;3.30;;;;;;;;;;5033213;28;20229;-86
2023/07/04 05:58:32;;;;;;;7.00;3.60;;;;;;;;;;5032451;28;20782;-85
2023/07/04 06:01:05;;;;;;;8.20;3.27;;;;;;;;;;5033823;28;20559;-84
2023/07/04 06:03:32;;;;;;;5.87;3.00;;;;;;;;;;5032358;28;20237;-86
2023/07/04 06:05:59;;;;;;;5.80;2.77;;;;;;;;;;5033587;28;20214;-86
2023/07/04 06:08:26;;;;;;;8.07;3.07;;;;;;;;;;5032561;28;20245;-85
2023/07/04 06:10:59;;;;;;;5.33;3.07;;;;;;;;;;5033609;28;20206;-86
2023/07/04 06:13:26;;;;;;;6.33;3.10;;;;;;;;;;5033090;28;20238;-88
2023/07/04 06:15:53;;;;;;;4.47;2.87;;;;;;;;;;5033152;28;20635;-87
2023/07/04 06:18:21;;;;;;;7.65;3.22;;;;;;;;;;5032552;28;20238;-84
2023/07/04 06:20:48;;;;;;;5.00;2.95;;;;;;;;;;5033256;28;20214;-87
2023/07/04 06:23:16;;;;;;;5.10;3.05;;;;;;;;;;5031814;28;20234;-85
2023/07/04 06:25:43;;;;;;;3.33;2.40;;;;;;;;;;5032968;28;20210;-86
2023/07/04 06:28:10;;;;;;;7.22;3.53;;;;;;;;;;5032464;28;20230;-86
2023/07/04 06:30:38;;;;;;;5.07;2.60;;;;;;;;;;5033089;28;20210;-86
2023/07/04 06:33:05;;;;;;;4.00;2.70;;;;;;;;;;5032030;28;20234;-83
2023/07/04 06:35:34;;;;;;;4.75;3.03;;;;;;;;;;5032544;28;20256;-84
2023/07/04 06:38:01;;;;;;;7.25;3.95;;;;;;;;;;5032062;28;20209;-86
2023/07/04 06:40:28;;;;;;;6.70;3.03;;;;;;;;;;5032462;28;20218;-85
2023/07/04 06:42:55;;;;;;;5.18;3.15;;;;;;;;;;5035761;28;20219;-85
2023/07/04 06:45:22;;;;;;;5.80;3.10;;;;;;;;;;5037889;28;20230;-86
2023/07/04 06:47:49;;;;;;;4.28;2.85;;;;;;;;;;5035716;28;20685;-86
2023/07/04 06:50:16;;;;;;;6.03;3.10;;;;;;;;;;5037127;28;20748;-86
2023/07/04 06:52:45;;;;;;;4.07;2.70;;;;;;;;;;5036897;28;20554;-86
2023/07/04 06:55:12;;;;;;;5.95;2.83;;;;;;;;;;5036740;28;20203;-86
2023/07/04 06:57:39;;;;;;;4.75;3.15;;;;;;;;;;5036565;28;20709;-86
2023/07/04 07:00:07;;;;;;;5.85;2.90;;;;;;;;;;5035420;28;20238;-86
2023/07/04 07:02:34;;;;;;;5.35;2.80;;;;;;;;;;5036858;28;20586;-86
2023/07/04 07:05:01;;;;;;;4.03;3.17;;;;;;;;;;5035544;28;20649;-85
2023/07/04 07:07:28;;;;;;;5.68;3.10;;;;;;;;;;5036879;28;20217;-87
2023/07/04 07:09:57;;;;;;;5.30;3.13;;;;;;;;;;5036798;28;20238;-87
2023/07/04 07:12:24;;;;;;;5.20;2.83;;;;;;;;;;5036819;28;20225;-86
2023/07/04 07:14:51;;;;;;;4.38;2.75;;;;;;;;;;5036061;28;20237;-86
2023/07/04 07:17:18;;;;;;;4.78;2.42;;;;;;;;;;5036021;28;20308;-86
2023/07/04 07:19:46;;;;;;;4.05;2.90;;;;;;;;;;5037660;28;20253;-84
2023/07/04 07:22:13;;;;;;;4.88;2.53;;;;;;;;;;5036720;28;20218;-85
2023/07/04 07:24:40;;;;;;;5.47;2.65;;;;;;;;;;5035637;28;20238;-86
2023/07/04 07:27:08;;;;;;;5.78;2.67;;;;;;;;;;5036567;28;20207;-85
2023/07/04 07:29:35;;;;;;;3.35;2.60;;;;;;;;;;5034745;28;20319;-85
2023/07/04 07:32:04;;;;;;;5.80;3.10;;;;;;;;;;5035199;28;20206;-85
2023/07/04 07:34:31;;;;;;;4.80;2.63;;;;;;;;;;5035354;28;20242;-85
2023/07/04 07:36:58;;;;;;;5.55;2.17;;;;;;;;;;5036393;28;20237;-87
2023/07/04 07:39:26;;;;;;;5.22;2.50;;;;;;;;;;5034834;28;20242;-86
2023/07/04 07:41:53;;;;;;;5.03;2.60;;;;;;;;;;5035520;28;20289;-86
2023/07/04 07:44:21;;;;;;;6.20;2.78;;;;;;;;;;5034773;28;20242;-84
2023/07/04 07:46:48;;;;;;;3.38;2.38;;;;;;;;;;5035730;28;20222;-86
2023/07/04 07:49:16;;;;;;;3.72;2.42;;;;;;;;;;5036287;28;20243;-86
2023/07/04 07:51:43;;;;;;;4.80;2.38;;;;;;;;;;5035292;28;20207;-85
2023/07/04 07:54:10;;;;;;;3.97;2.60;;;;;;;;;;5034037;28;20643;-86
2023/07/04 07:56:39;;;;;;;4.20;2.47;;;;;;;;;;5035359;28;20222;-87
2023/07/04 07:59:06;;;;;;;3.55;2.22;;;;;;;;;;5035828;28;20238;-85
2023/07/04 08:01:35;;;;;;;5.40;2.72;;;;;;;;;;5036116;28;20206;-86
2023/07/04 08:04:03;;;;;;;4.20;2.22;;;;;;;;;;5034592;28;20275;-85
2023/07/04 08:06:31;;;;;;;6.60;2.25;;;;;;;;;;5034704;28;20207;-87
2023/07/04 08:08:59;;;;;;;2.85;1.77;;;;;;;;;;5035275;28;20246;-84
2023/07/04 08:11:27;;;;;;;4.53;2.40;;;;;;;;;;5034733;28;20206;-84
2023/07/04 08:13:54;;;;;;;5.22;2.78;;;;;;;;;;5034214;28;20239;-84
2023/07/04 08:16:22;;;;;;;4.97;3.10;;;;;;;;;;5034394;28;20210;-86
2023/07/04 08:18:50;;;;;;;4.07;2.38;;;;;;;;;;5033748;28;20242;-86
2023/07/04 08:21:18;;;;;;;4.90;2.53;;;;;;;;;;5033889;28;20217;-86
2023/07/04 08:23:45;;;;;;;4.70;2.42;;;;;;;;;;5033425;28;20802;-84
2023/07/04 08:26:15;;;;;;;4.03;2.25;;;;;;;;;;5034516;28;20290;-86
2023/07/04 08:28:42;;;;;;;3.83;2.25;;;;;;;;;;5033288;28;20266;-87
2023/07/04 08:31:10;;;;;;;5.18;2.55;;;;;;;;;;5034271;28;20206;-86
2023/07/04 08:33:37;;;;;;;2.90;2.17;;;;;;;;;;5033454;28;20230;-86
2023/07/04 08:36:08;;;;;;;4.28;2.40;;;;;;;;;;5034450;28;20207;-86
2023/07/04 08:38:35;;;;;;;5.00;2.58;;;;;;;;;;5033218;28;20720;-86
2023/07/04 08:41:02;;;;;;;4.57;2.60;;;;;;;;;;5034282;28;20214;-86
2023/07/04 08:43:33;;;;;;;4.88;2.50;;;;;;;;;;5033616;28;20242;-86
2023/07/04 08:46:01;;;;;;;4.45;2.33;;;;;;;;;;5033421;28;20233;-86
2023/07/04 08:48:28;;;;;;;3.67;2.72;;;;;;;;;;5033170;28;20246;-85
2023/07/04 08:50:57;;;;;;;6.57;2.60;;;;;;;;;;5034066;28;20229;-87
2023/07/04 08:53:26;;;;;;;4.50;2.35;;;;;;;;;;5033242;28;20313;-87
2023/07/04 08:55:57;;;;;;;3.00;1.92;;;;;;;;;;5033952;28;20203;-85
2023/07/04 08:58:28;;;;;;;3.92;2.30;;;;;;;;;;5032790;28;20238;-84
2023/07/04 09:00:57;;;;;;;3.80;2.10;;;;;;;;;;5033632;28;20191;-86
2023/07/04 09:03:29;;;;;;;3.78;2.60;;;;;;;;;;5033022;28;20589;-87
2023/07/04 09:06:00;;;;;;;3.95;2.83;;;;;;;;;;5032695;28;20215;-86
2023/07/04 09:08:38;;;;;;;4.30;2.67;;;;;;;;;;5032616;28;20744;-85
2023/07/04 09:11:08;;;;;;;3.80;2.50;;;;;;;;;;5033344;28;20214;-87
2023/07/04 09:13:37;;;;;;;3.67;2.75;;;;;;;;;;5033380;28;20239;-87
2023/07/04 09:16:07;;;;;;;2.83;2.22;;;;;;;;;;5033435;28;20228;-87
2023/07/04 09:18:38;;;;;;;3.72;2.63;;;;;;;;;;5033255;28;20239;-87
2023/07/04 09:21:08;;;;;;;3.22;2.38;;;;;;;;;;5033602;28;20207;-86
2023/07/04 09:23:36;;;;;;;3.47;2.58;;;;;;;;;;5032744;28;20325;-84
2023/07/04 09:26:04;;;;;;;5.72;2.78;;;;;;;;;;5032773;28;20637;-86
2023/07/04 09:28:31;;;;;;;3.75;2.72;;;;;;;;;;5032425;28;20238;-85
2023/07/04 09:30:59;;;;;;;3.85;2.67;;;;;;;;;;5033390;28;20206;-86
2023/07/04 09:33:28;;;;;;;5.00;2.60;;;;;;;;;;5032419;28;20234;-86
2023/07/04 09:35:56;;;;;;;4.78;2.42;;;;;;;;;;5033339;28;20213;-87
2023/07/04 09:38:23;;;;;;;3.13;2.60;;;;;;;;;;5033186;28;20592;-86
2023/07/04 09:40:54;;;;;;;2.90;2.58;;;;;;;;;;5033032;28;20341;-83
2023/07/04 09:43:27;;;;;;;4.72;2.67;;;;;;;;;;5032176;28;20238;-83
2023/07/04 09:46:10;;;;;;;3.78;2.60;;;;;;;;;;5032364;28;20238;-83
2023/07/04 09:48:37;;;;;;;2.92;2.63;;;;;;;;;;5031724;28;20246;-82
2023/07/04 09:51:16;;;;;;;6.32;3.40;;;;;;;;;;5032242;28;20202;-83
2023/07/04 09:53:43;;;;;;;3.72;2.63;;;;;;;;;;5031335;28;20234;-83
2023/07/04 09:56:12;;;;;;;2.78;2.33;;;;;;;;;;5031756;28;20199;-84
2023/07/04 09:58:39;;;;;;;4.30;2.50;;;;;;;;;;5031506;28;20234;-83
2023/07/04 10:01:08;;;;;;;3.58;3.00;;;;;;;;;;5032034;28;20210;-82
2023/07/04 10:03:36;;;;;;;6.05;2.67;;;;;;;;;;5031938;28;20238;-83
2023/07/04 10:06:03;;;;;;;3.30;2.38;;;;;;;;;;5031821;28;20226;-83
2023/07/04 10:08:31;;;;;;;3.38;2.90;;;;;;;;;;5031473;28;20242;-82
2023/07/04 10:10:59;;;;;;;2.92;2.22;;;;;;;;;;5032985;28;20238;-84
2023/07/04 10:13:35;;;;;;;3.15;2.90;;;;;;;;;;5032225;28;20239;-83
2023/07/04 10:16:02;;;;;;;6.82;2.65;;;;;;;;;;5032091;28;20190;-82
2023/07/04 10:18:31;;;;;;;3.70;2.50;;;;;;;;;;5031539;28;20266;-82
2023/07/04 10:20:59;;;;;;;4.93;2.50;;;;;;;;;;5032244;28;20202;-84
2023/07/04 10:23:27;;;;;;;4.68;2.78;;;;;;;;;;5031501;28;20241;-83
2023/07/04 10:25:54;;;;;;;3.42;3.13;;;;;;;;;;5031854;28;20731;-83
2023/07/04 10:28:25;;;;;;;4.55;2.90;;;;;;;;;;5030894;28;20261;-84
2023/07/04 10:30:55;;;;;;;3.35;2.50;;;;;;;;;;5032059;28;20214;-84
2023/07/04 10:33:25;;;;;;;5.25;2.58;;;;;;;;;;5031432;28;20254;-83
2023/07/04 10:35:52;;;;;;;3.85;2.85;;;;;;;;;;5031805;28;20249;-83
2023/07/04 10:38:26;;;;;;;6.05;2.67;;;;;;;;;;5031690;28;20241;-82
2023/07/04 10:40:54;;;;;;;4.93;2.63;;;;;;;;;;5032332;28;20810;-83
2023/07/04 10:43:26;;;;;;;6.53;3.60;;;;;;;;;;5031035;28;20700;-84
2023/07/04 10:45:55;;;;;;;4.15;3.28;;;;;;;;;;5031360;28;20269;-82
2023/07/04 10:48:23;;;;;;;6.50;3.67;;;;;;;;;;5031303;28;20239;-83
2023/07/04 10:50:53;;;;;;;5.28;3.20;;;;;;;;;;5031970;28;20714;-83
2023/07/04 10:53:20;;;;;;;4.07;3.58;;;;;;;;;;5030578;28;20230;-83
2023/07/04 10:55:49;;;;;;;4.50;3.17;;;;;;;;;;5031529;28;20569;-83
2023/07/04 10:58:19;;;;;;;5.82;3.80;;;;;;;;;;5031026;28;20230;-82
2023/07/04 11:00:49;;;;;;;5.50;3.92;;;;;;;;;;5031710;28;20210;-84
2023/07/04 11:03:19;;;;;;;3.40;3.10;;;;;;;;;;5031252;28;20234;-83
2023/07/04 11:05:49;;;;;;;4.00;3.28;;;;;;;;;;5031212;28;20227;-83
2023/07/04 11:08:17;;;;;;;6.30;3.00;;;;;;;;;;5031307;28;20309;-82
2023/07/04 11:10:47;;;;;;;3.40;2.90;;;;;;;;;;5031542;28;20306;-83
2023/07/04 11:13:15;;;;;;;4.80;3.17;;;;;;;;;;5031169;28;20242;-83
2023/07/04 11:15:43;;;;;;;4.97;3.60;;;;;;;;;;5031016;28;20213;-83
2023/07/04 11:18:15;;;;;;;4.57;3.55;;;;;;;;;;5030682;28;20246;-84
2023/07/04 11:20:54;;;;;;;5.88;3.05;;;;;;;;;;5031442;28;20199;-83
2023/07/04 11:23:22;;;;;;;4.82;3.88;;;;;;;;;;5030464;28;20709;-83
2023/07/04 11:26:08;;;;;;;4.38;3.97;;;;;;;;;;5031200;28;20253;-83
2023/07/04 11:28:43;;;;;;;5.88;3.33;;;;;;;;;;5031068;28;20243;-82
2023/07/04 11:31:15;;;;;;;4.40;3.17;;;;;;;;;;5035018;28;20195;-84
2023/07/04 11:33:44;;;;;;;5.50;3.50;;;;;;;;;;5034419;28;20727;-82
2023/07/04 11:36:19;;;;;;;4.57;3.47;;;;;;;;;;5034376;28;20288;-83
2023/07/04 11:38:53;;;;;;;5.65;3.40;;;;;;;;;;5034088;28;20242;-83
2023/07/04 11:41:27;;;;;;;5.25;3.33;;;;;;;;;;5034952;28;20194;-84
2023/07/04 11:43:55;;;;;;;7.03;3.88;;;;;;;;;;5034367;28;20230;-82
2023/07/04 11:46:23;;;;;;;3.88;3.35;;;;;;;;;;5034483;28;20237;-82
2023/07/04 11:48:51;;;;;;;5.82;3.83;;;;;;;;;;5033812;28;20285;-85
2023/07/04 11:51:22;;;;;;;4.50;3.50;;;;;;;;;;5034396;28;20207;-84
2023/07/04 11:53:54;;;;;;;4.95;3.80;;;;;;;;;;5034195;28;20234;-84
2023/07/04 11:56:34;;;;;;;5.63;3.80;;;;;;;;;;5034236;28;20556;-83
2023/07/04 11:59:20;;;;;;;5.97;3.95;;;;;;;;;;5033893;28;20249;-83
2023/07/04 12:02:03;;;;;;;4.53;4.00;;;;;;;;;;5014571;28;20215;-82
2023/07/04 12:04:46;;;;;;;4.40;3.88;;;;;;;;;;5013638;28;20266;-83
2023/07/04 12:07:18;;;;;;;5.18;4.32;;;;;;;;;;5013864;28;20237;-84
2023/07/04 12:09:47;;;;;;;6.07;4.00;;;;;;;;;;5013606;28;20622;-84
2023/07/04 12:12:18;;;;;;;5.40;4.88;;;;;;;;;;5014632;28;20215;-84
2023/07/04 12:14:47;;;;;;;6.78;5.15;;;;;;;;;;5013798;28;20262;-84
2023/07/04 12:17:15;;;;;;;6.50;4.47;;;;;;;;;;5013927;28;20254;-83
2023/07/04 12:19:42;;;;;;;4.57;4.10;;;;;;;;;;5013463;28;20243;-83
2023/07/04 12:22:16;;;;;;;5.95;4.30;;;;;;;;;;5013723;28;20214;-83
2023/07/04 12:24:44;;;;;;;5.93;4.03;;;;;;;;;;5013492;28;20231;-83
2023/07/04 12:27:12;;;;;;;5.10;4.20;;;;;;;;;;5013971;28;20227;-82
2023/07/04 12:29:45;;;;;;;4.80;4.10;;;;;;;;;;5013068;28;20261;-82
2023/07/04 12:32:18;;;;;;;6.53;4.25;;;;;;;;;;5013740;28;20218;-82
2023/07/04 12:34:45;;;;;;;4.00;3.60;;;;;;;;;;5013228;28;20238;-84
2023/07/04 12:37:14;;;;;;;4.78;4.28;;;;;;;;;;5013503;28;20208;-83
2023/07/04 12:39:47;;;;;;;5.45;4.10;;;;;;;;;;5012858;28;20243;-82
2023/07/04 12:42:18;;;;;;;5.13;4.57;;;;;;;;;;5013675;28;20261;-83
2023/07/04 12:44:45;;;;;;;4.68;3.88;;;;;;;;;;5013199;28;20239;-83
2023/07/04 12:47:16;;;;;;;4.35;3.92;;;;;;;;;;5013277;28;20238;-84
2023/07/04 12:49:43;;;;;;;4.32;3.92;;;;;;;;;;5013140;28;20320;-83
2023/07/04 12:52:12;;;;;;;6.25;4.00;;;;;;;;;;5014093;28;20234;-83
2023/07/04 12:54:40;;;;;;;4.80;3.60;;;;;;;;;;5013257;28;20301;-83
2023/07/04 12:57:13;;;;;;;5.18;4.40;;;;;;;;;;5013497;28;20592;-83
2023/07/04 12:59:40;;;;;;;4.80;4.05;;;;;;;;;;5016068;28;20230;-83
2023/07/04 13:02:13;;;;;;;4.38;3.95;;;;;;;;;;5033047;28;20230;-82
2023/07/04 13:04:41;;;;;;;4.82;3.83;;;;;;;;;;5032353;28;20304;-83
2023/07/04 13:07:08;;;;;;;3.97;3.42;;;;;;;;;;5032838;28;20231;-82
2023/07/04 13:09:37;;;;;;;3.92;3.53;;;;;;;;;;5032268;28;20235;-83
2023/07/04 13:12:04;;;;;;;4.55;3.90;;;;;;;;;;5032984;28;20207;-81
2023/07/04 13:14:33;;;;;;;6.78;3.60;;;;;;;;;;5032306;28;20735;-83
2023/07/04 13:17:10;;;;;;;4.88;3.30;;;;;;;;;;5032744;28;20215;-82
2023/07/04 13:19:39;;;;;;;4.13;3.67;;;;;;;;;;5032043;28;20246;-82
2023/07/04 13:22:14;;;;;;;7.18;3.50;;;;;;;;;;5032573;28;20254;-82
2023/07/04 13:24:41;;;;;;;4.38;3.60;;;;;;;;;;5032287;28;20245;-83
2023/07/04 13:27:12;;;;;;;4.60;3.80;;;;;;;;;;5032706;28;20258;-83
2023/07/04 13:29:49;;;;;;;4.65;3.30;;;;;;;;;;5031653;28;20246;-83
2023/07/04 13:32:27;;;;;;;6.75;3.63;;;;;;;;;;5032668;28;20198;-83
2023/07/04 13:34:55;;;;;;;5.95;3.90;;;;;;;;;;5031813;28;20238;-83
2023/07/04 13:37:22;;;;;;;4.47;4.07;;;;;;;;;;5032258;28;20206;-83
2023/07/04 13:39:50;;;;;;;4.25;3.67;;;;;;;;;;5031842;28;20258;-82
2023/07/04 13:42:18;;;;;;;6.50;3.60;;;;;;;;;;5032327;28;20206;-83
2023/07/04 13:44:47;;;;;;;4.72;3.50;;;;;;;;;;5031674;28;20336;-83
2023/07/04 13:47:15;;;;;;;4.38;3.67;;;;;;;;;;5031867;28;20684;-82
2023/07/04 13:49:42;;;;;;;4.38;3.50;;;;;;;;;;5031490;28;20684;-83
2023/07/04 13:52:10;;;;;;;4.25;3.72;;;;;;;;;;5032049;28;20260;-83
2023/07/04 13:54:37;;;;;;;4.20;3.78;;;;;;;;;;5031516;28;20245;-82
2023/07/04 13:57:04;;;;;;;4.43;3.50;;;;;;;;;;5032266;28;20222;-83
2023/07/04 13:59:31;;;;;;;4.38;3.55;;;;;;;;;;5031229;28;20245;-83
2023/07/04 14:01:59;;;;;;;6.95;3.38;;;;;;;;;;5032025;28;20217;-82
2023/07/04 14:04:27;;;;;;;4.22;3.50;;;;;;;;;;5031167;28;20715;-82
2023/07/04 14:06:54;;;;;;;4.75;3.22;;;;;;;;;;5032129;28;20245;-82
2023/07/04 14:09:22;;;;;;;5.32;3.25;;;;;;;;;;5031004;28;20247;-83
2023/07/04 14:11:49;;;;;;;5.72;3.90;;;;;;;;;;5032091;28;20206;-83
2023/07/04 14:14:16;;;;;;;5.10;3.83;;;;;;;;;;5031386;28;20625;-83
2023/07/04 14:16:43;;;;;;;4.55;3.65;;;;;;;;;;5031996;28;20265;-83
2023/07/04 14:19:10;;;;;;;5.47;3.92;;;;;;;;;;5031230;28;20242;-83
2023/07/04 14:21:38;;;;;;;6.00;4.68;;;;;;;;;;5031624;28;20210;-82
2023/07/04 14:24:06;;;;;;;7.25;4.78;;;;;;;;;;5031217;28;20241;-81
2023/07/04 14:26:33;;;;;;;6.50;4.93;;;;;;;;;;5031370;28;20279;-81
2023/07/04 14:29:00;;;;;;;6.50;5.45;;;;;;;;;;5031114;28;20242;-82
2023/07/04 14:31:27;;;;;;;8.15;6.78;;;;;;;;;;5031611;28;20211;-83
2023/07/04 14:33:57;;;;;;;6.30;5.70;;;;;;;;;;5031107;28;20238;-83
2023/07/04 14:36:26;;;;;;;7.68;5.68;;;;;;;;;;5031888;28;20210;-82
2023/07/04 14:38:55;;;;;;;9.38;6.13;;;;;;;;;;5031167;28;20245;-83
2023/07/04 14:41:22;;;;;;;7.75;5.10;;;;;;;;;;5031543;28;20206;-82
2023/07/04 14:43:49;;;;;;;6.97;5.50;;;;;;;;;;5030925;28;20281;-83
2023/07/04 14:46:16;;;;;;;6.05;5.35;;;;;;;;;;5031264;28;20234;-83
2023/07/04 14:48:43;;;;;;;8.35;6.15;;;;;;;;;;5030940;28;20239;-82
2023/07/04 14:51:12;;;;;;;9.82;7.53;;;;;;;;;;5031324;28;20213;-83